Flight Training


We provide structured training required to obtain a pilots certificate ranging from a Private Pilot up to ATP flying for the major airlines.

If your desire to fly is for personal pleasure the first step is to find a professional FAA licensed flight instructor to begin your journey.

The one-hour introductory flight with an instructor lasts one hour and features a log book and a six-month subscription to Flight Training magazine. After flying you to the training area, your instructor will let you test the controls. Call us now

 

Aviation Weather

Available data for KLDJ from the past 2 hours
LINDEN, NJ
Metar
KLDJ 170935Z AUTO 00000KT 10SM CLR 07/04 A3002 RMK AO2 T00680040

09:35 UTC

Wind: 0° 0kt

Visibility: 10 SM

Sky:

Temp: 7 deg C / 44.6 deg F

Dewpoint: 4 deg C / 39.2 deg F

Pressure: 30.02 inHg


Available data for KEWR from the past hour
NEWARK, NJ
TAF
KEWR 170833Z 1709/1812 25010KT P6SM BKN250 FM171400 26015G22KT P6SM SCT260 FM171700 27020G28KT P6SM SCT060 FM172000 28022G30KT P6SM BKN060 FM180100 29017G25KT P6SM SCT060 FM180800 32014G22KT P6SM SCT060

Our planes

Some of our students